Time;durP1;ratioP1;P1;durP2;ratioP2;P2;SDS_P1;SDS_P2;PMS_P1;PMS_P2;Temp;Humidity;BMP_temperature;BMP_pressure;BME280_temperature;BME280_humidity;BME280_pressure;Samples;Min_cycle;Max_cycle;Signal;HPM_P1;HPM_P2
2020/12/27 00:02:17;;;;;;;11.50;5.25;;;;;;;;;;5009320;28;20116;-78
2020/12/27 00:04:43;;;;;;;9.18;5.25;;;;;;;;;;5008311;28;20076;-78
2020/12/27 00:07:10;;;;;;;8.82;5.05;;;;;;;;;;5008894;28;20030;-79
2020/12/27 00:09:37;;;;;;;12.02;6.03;;;;;;;;;;5007415;28;20048;-78
2020/12/27 00:12:03;;;;;;;15.05;6.55;;;;;;;;;;5008705;28;20034;-78
2020/12/27 00:14:29;;;;;;;12.48;6.05;;;;;;;;;;5006983;28;20034;-78
2020/12/27 00:16:55;;;;;;;9.13;5.40;;;;;;;;;;5008949;28;20456;-78
2020/12/27 00:19:21;;;;;;;11.65;6.03;;;;;;;;;;5006693;28;20034;-79
2020/12/27 00:21:47;;;;;;;11.43;5.57;;;;;;;;;;5006728;28;20026;-80
2020/12/27 00:24:13;;;;;;;10.75;4.88;;;;;;;;;;5006525;28;20060;-78
2020/12/27 00:26:40;;;;;;;11.32;4.97;;;;;;;;;;5008980;28;20030;-79
2020/12/27 00:29:06;;;;;;;7.82;4.68;;;;;;;;;;5009131;28;20022;-78
2020/12/27 00:31:32;;;;;;;10.10;4.50;;;;;;;;;;5007217;28;20044;-78
2020/12/27 00:33:58;;;;;;;10.63;4.85;;;;;;;;;;5008727;28;20022;-79
2020/12/27 00:36:24;;;;;;;8.65;5.07;;;;;;;;;;5008036;28;20041;-80
2020/12/27 00:38:50;;;;;;;9.00;4.47;;;;;;;;;;5007021;28;20121;-79
2020/12/27 00:41:20;;;;;;;10.38;5.10;;;;;;;;;;5006768;28;20121;-79
2020/12/27 00:43:47;;;;;;;8.98;4.68;;;;;;;;;;5007976;28;20069;-78
2020/12/27 00:46:13;;;;;;;7.88;4.07;;;;;;;;;;5006913;28;20105;-78
2020/12/27 00:48:39;;;;;;;8.45;4.35;;;;;;;;;;5006965;28;20124;-78
2020/12/27 00:51:05;;;;;;;11.25;5.20;;;;;;;;;;5006176;28;20126;-78
2020/12/27 00:53:31;;;;;;;10.13;4.72;;;;;;;;;;5006103;28;20058;-78
2020/12/27 00:55:57;;;;;;;8.80;5.00;;;;;;;;;;5006252;28;20072;-78
2020/12/27 00:58:23;;;;;;;12.75;5.25;;;;;;;;;;5005799;28;20037;-78
2020/12/27 01:00:49;;;;;;;10.95;5.63;;;;;;;;;;5007783;28;20435;-79
2020/12/27 01:03:15;;;;;;;10.63;5.03;;;;;;;;;;5007132;28;20080;-78
2020/12/27 01:05:44;;;;;;;10.20;5.38;;;;;;;;;;5006284;28;20133;-79
2020/12/27 01:08:10;;;;;;;11.82;5.40;;;;;;;;;;5006060;28;20489;-78
2020/12/27 01:10:36;;;;;;;9.85;4.72;;;;;;;;;;5007125;28;20515;-79
2020/12/27 01:13:02;;;;;;;9.70;4.70;;;;;;;;;;5006772;28;20116;-80
2020/12/27 01:15:28;;;;;;;10.23;4.50;;;;;;;;;;5006056;28;20096;-79
2020/12/27 01:17:54;;;;;;;8.43;4.82;;;;;;;;;;5008362;28;20416;-78
2020/12/27 01:20:20;;;;;;;10.30;4.65;;;;;;;;;;4989989;28;20085;-79
2020/12/27 01:22:46;;;;;;;9.88;4.07;;;;;;;;;;4986042;28;20029;-79
2020/12/27 01:25:12;;;;;;;9.00;4.70;;;;;;;;;;4986420;28;20019;-78
2020/12/27 01:27:38;;;;;;;9.13;4.82;;;;;;;;;;4986742;28;20093;-80
2020/12/27 01:30:05;;;;;;;9.55;4.78;;;;;;;;;;4988999;28;20062;-79
2020/12/27 01:32:31;;;;;;;8.07;4.97;;;;;;;;;;4989119;28;20117;-78
2020/12/27 01:34:57;;;;;;;11.25;4.75;;;;;;;;;;4991432;28;20109;-79
2020/12/27 01:37:23;;;;;;;10.48;4.70;;;;;;;;;;4991276;28;20121;-79
2020/12/27 01:39:49;;;;;;;7.78;4.50;;;;;;;;;;4993749;28;20022;-80
2020/12/27 01:42:15;;;;;;;7.78;4.32;;;;;;;;;;4991908;28;20058;-79
2020/12/27 01:44:41;;;;;;;8.13;4.30;;;;;;;;;;4992661;28;20022;-78
2020/12/27 01:47:28;;;;;;;7.95;4.22;;;;;;;;;;4991376;28;20375;-79
2020/12/27 01:49:54;;;;;;;8.80;4.90;;;;;;;;;;4991416;28;20185;-78
2020/12/27 01:52:20;;;;;;;7.85;4.40;;;;;;;;;;4992280;28;20102;-78
2020/12/27 01:54:46;;;;;;;7.35;4.35;;;;;;;;;;4991563;28;20678;-79
2020/12/27 01:57:13;;;;;;;9.32;4.88;;;;;;;;;;4989966;28;20030;-79
2020/12/27 01:59:39;;;;;;;7.43;4.15;;;;;;;;;;4990808;28;20022;-79
2020/12/27 02:02:06;;;;;;;9.40;4.78;;;;;;;;;;4991464;28;20022;-77
2020/12/27 02:04:33;;;;;;;8.80;4.90;;;;;;;;;;4989682;28;20022;-80
2020/12/27 02:06:59;;;;;;;9.23;4.38;;;;;;;;;;4990353;28;20022;-79
2020/12/27 02:09:25;;;;;;;9.50;4.55;;;;;;;;;;4990665;28;20376;-78
2020/12/27 02:12:05;;;;;;;10.82;5.13;;;;;;;;;;4991572;28;20037;-80
2020/12/27 02:14:31;;;;;;;8.63;4.32;;;;;;;;;;4988959;28;20506;-78
2020/12/27 02:16:57;;;;;;;10.02;4.65;;;;;;;;;;4989750;28;20478;-79
2020/12/27 02:19:23;;;;;;;9.80;4.55;;;;;;;;;;4991409;28;20022;-78
2020/12/27 02:21:49;;;;;;;9.38;4.82;;;;;;;;;;4990394;28;20405;-79
2020/12/27 02:24:15;;;;;;;11.50;5.15;;;;;;;;;;4989419;28;20370;-79
2020/12/27 02:26:53;;;;;;;11.73;5.30;;;;;;;;;;4989959;28;20026;-80
2020/12/27 02:29:19;;;;;;;10.02;4.28;;;;;;;;;;4990122;28;20374;-78
2020/12/27 02:31:45;;;;;;;9.25;5.38;;;;;;;;;;4990622;28;20053;-79
2020/12/27 02:34:11;;;;;;;8.77;5.15;;;;;;;;;;4982491;28;20026;-78
2020/12/27 02:36:37;;;;;;;8.48;4.80;;;;;;;;;;4972256;28;20035;-77
2020/12/27 02:39:08;;;;;;;10.10;5.57;;;;;;;;;;4986073;28;20037;-79
2020/12/27 02:41:34;;;;;;;7.43;4.78;;;;;;;;;;4970391;28;20065;-80
2020/12/27 02:44:00;;;;;;;8.40;5.00;;;;;;;;;;4971268;28;20501;-79
2020/12/27 02:46:27;;;;;;;8.07;4.45;;;;;;;;;;4985714;28;20023;-79
2020/12/27 02:48:53;;;;;;;8.50;4.72;;;;;;;;;;4971023;28;20492;-79
2020/12/27 02:51:20;;;;;;;9.32;4.93;;;;;;;;;;4985791;28;20701;-80
2020/12/27 02:53:48;;;;;;;7.78;5.18;;;;;;;;;;4971136;28;20035;-79
2020/12/27 02:56:14;;;;;;;10.80;4.93;;;;;;;;;;4985052;28;20391;-78
2020/12/27 02:58:40;;;;;;;10.50;5.20;;;;;;;;;;4985933;28;20018;-79
2020/12/27 03:01:06;;;;;;;9.43;5.30;;;;;;;;;;4986600;28;20497;-80
2020/12/27 03:03:32;;;;;;;11.40;5.07;;;;;;;;;;4973234;28;20026;-79
2020/12/27 03:05:58;;;;;;;10.35;5.15;;;;;;;;;;4987614;28;20022;-79
2020/12/27 03:08:24;;;;;;;9.10;4.45;;;;;;;;;;4988160;28;20050;-78
2020/12/27 03:10:50;;;;;;;8.93;4.93;;;;;;;;;;4987864;28;20056;-78
2020/12/27 03:13:16;;;;;;;8.00;4.50;;;;;;;;;;4988102;28;20474;-78
2020/12/27 03:15:42;;;;;;;11.38;5.18;;;;;;;;;;4972756;28;20030;-79
2020/12/27 03:18:08;;;;;;;10.43;5.15;;;;;;;;;;4972749;28;20491;-79
2020/12/27 03:20:34;;;;;;;8.60;4.93;;;;;;;;;;4973293;28;20058;-79
2020/12/27 03:23:00;;;;;;;8.70;4.97;;;;;;;;;;4973176;28;20031;-79
2020/12/27 03:25:26;;;;;;;9.65;4.60;;;;;;;;;;4972602;28;20034;-79
2020/12/27 03:27:52;;;;;;;10.05;5.15;;;;;;;;;;4987836;28;20038;-79
2020/12/27 03:30:18;;;;;;;9.93;5.10;;;;;;;;;;4988152;28;20177;-79
2020/12/27 03:32:45;;;;;;;11.10;5.65;;;;;;;;;;4987772;28;20042;-78
2020/12/27 03:35:11;;;;;;;8.75;5.45;;;;;;;;;;4987367;28;20035;-79
2020/12/27 03:37:37;;;;;;;8.82;4.97;;;;;;;;;;4987859;28;20041;-79
2020/12/27 03:40:04;;;;;;;11.85;5.90;;;;;;;;;;4972715;28;20027;-79
2020/12/27 03:42:30;;;;;;;11.43;5.80;;;;;;;;;;4973261;28;20030;-79
2020/12/27 03:44:56;;;;;;;11.20;5.60;;;;;;;;;;4987572;28;20065;-79
2020/12/27 03:47:23;;;;;;;11.75;5.20;;;;;;;;;;4987653;28;20019;-80
2020/12/27 03:49:49;;;;;;;8.75;5.35;;;;;;;;;;4974569;28;20019;-79
2020/12/27 03:52:15;;;;;;;9.60;5.55;;;;;;;;;;4972053;28;20117;-79
2020/12/27 03:54:41;;;;;;;8.35;5.28;;;;;;;;;;4971328;28;20050;-79
2020/12/27 03:57:07;;;;;;;8.95;5.18;;;;;;;;;;4971114;28;20539;-79
2020/12/27 03:59:33;;;;;;;10.15;5.15;;;;;;;;;;4972562;28;20088;-79
2020/12/27 04:01:59;;;;;;;9.27;4.93;;;;;;;;;;4971002;28;20019;-78
2020/12/27 04:04:25;;;;;;;12.63;5.40;;;;;;;;;;4991880;28;20030;-79
2020/12/27 04:06:50;;;;;;;10.23;5.50;;;;;;;;;;5008531;28;20088;-79
2020/12/27 04:09:16;;;;;;;10.40;5.20;;;;;;;;;;5010211;28;20523;-78
2020/12/27 04:11:42;;;;;;;12.57;5.50;;;;;;;;;;5009854;28;20038;-79
2020/12/27 04:14:09;;;;;;;8.80;4.97;;;;;;;;;;5010365;28;20481;-79
2020/12/27 04:16:35;;;;;;;12.00;5.60;;;;;;;;;;5009550;28;20076;-80
2020/12/27 04:19:01;;;;;;;9.73;5.18;;;;;;;;;;5006339;28;20030;-79
2020/12/27 04:21:27;;;;;;;10.48;5.28;;;;;;;;;;4989195;28;20034;-78
2020/12/27 04:23:53;;;;;;;12.18;5.78;;;;;;;;;;4989238;28;20093;-79
2020/12/27 04:26:19;;;;;;;10.90;5.55;;;;;;;;;;4987717;28;20050;-79
2020/12/27 04:28:45;;;;;;;9.18;5.28;;;;;;;;;;4988135;28;20516;-79
2020/12/27 04:31:14;;;;;;;9.63;5.18;;;;;;;;;;4989516;28;20108;-79
2020/12/27 04:33:41;;;;;;;10.73;5.45;;;;;;;;;;4989675;28;20026;-78
2020/12/27 04:36:07;;;;;;;9.38;5.20;;;;;;;;;;4989093;28;20069;-77
2020/12/27 04:38:33;;;;;;;9.80;5.97;;;;;;;;;;4989781;28;20023;-79
2020/12/27 04:41:03;;;;;;;9.82;5.18;;;;;;;;;;4988535;28;20058;-79
2020/12/27 04:43:29;;;;;;;9.55;5.22;;;;;;;;;;4989571;28;20027;-79
2020/12/27 04:45:58;;;;;;;8.00;4.88;;;;;;;;;;4990386;28;20057;-79
2020/12/27 04:48:24;;;;;;;8.18;5.18;;;;;;;;;;4989028;28;20361;-79
2020/12/27 04:50:50;;;;;;;9.07;5.55;;;;;;;;;;4989803;28;20030;-79
2020/12/27 04:53:16;;;;;;;9.45;5.65;;;;;;;;;;4989733;28;20113;-80
2020/12/27 04:55:42;;;;;;;9.13;5.53;;;;;;;;;;4989629;28;20665;-79
2020/12/27 04:58:09;;;;;;;9.75;5.70;;;;;;;;;;4989761;28;20038;-79
2020/12/27 05:00:35;;;;;;;10.38;5.88;;;;;;;;;;4988345;28;20041;-79
2020/12/27 05:03:01;;;;;;;9.13;5.47;;;;;;;;;;4989697;28;20499;-79
2020/12/27 05:05:27;;;;;;;9.23;5.68;;;;;;;;;;4988336;28;20030;-78
2020/12/27 05:07:53;;;;;;;12.77;5.82;;;;;;;;;;4989487;28;20027;-79
2020/12/27 05:10:21;;;;;;;8.90;5.55;;;;;;;;;;4993415;28;20513;-78
2020/12/27 05:12:47;;;;;;;;;;;;;;;;;;4993438;28;20034;-79
2020/12/27 05:15:13;;;;;;;11.68;5.93;;;;;;;;;;4994036;28;20029;-79
2020/12/27 05:17:39;;;;;;;7.93;4.97;;;;;;;;;;4992271;28;20029;-78
2020/12/27 05:20:08;;;;;;;11.40;6.18;;;;;;;;;;4992870;28;20109;-79
2020/12/27 05:22:35;;;;;;;11.32;5.97;;;;;;;;;;4994388;28;20033;-78
2020/12/27 05:25:02;;;;;;;10.60;6.35;;;;;;;;;;4993959;28;20026;-79
2020/12/27 05:27:29;;;;;;;10.95;6.22;;;;;;;;;;4993979;28;20027;-78
2020/12/27 05:29:59;;;;;;;10.88;6.07;;;;;;;;;;4993887;28;20101;-80
2020/12/27 05:32:26;;;;;;;10.13;5.82;;;;;;;;;;4993471;28;20022;-77
2020/12/27 05:34:52;;;;;;;13.93;6.28;;;;;;;;;;4992511;28;20172;-79
2020/12/27 05:37:20;;;;;;;11.13;6.25;;;;;;;;;;4993452;28;20497;-79
2020/12/27 05:39:46;;;;;;;11.68;6.05;;;;;;;;;;4993004;28;20034;-79
2020/12/27 05:42:12;;;;;;;13.07;6.30;;;;;;;;;;4990697;28;20030;-79
2020/12/27 05:44:39;;;;;;;13.30;6.50;;;;;;;;;;4992744;28;20138;-79
2020/12/27 05:47:05;;;;;;;10.98;6.90;;;;;;;;;;4992521;28;20569;-78
2020/12/27 05:49:31;;;;;;;11.60;6.80;;;;;;;;;;4991695;28;20026;-77
2020/12/27 05:51:58;;;;;;;11.80;7.10;;;;;;;;;;4991319;28;20493;-79
2020/12/27 05:54:33;;;;;;;12.88;6.82;;;;;;;;;;4992320;28;20026;-79
2020/12/27 05:57:00;;;;;;;12.05;7.03;;;;;;;;;;4991567;28;20032;-78
2020/12/27 05:59:31;;;;;;;11.93;6.73;;;;;;;;;;4993256;28;20041;-78
2020/12/27 06:01:57;;;;;;;11.15;6.90;;;;;;;;;;4991660;28;20297;-78
2020/12/27 06:04:38;;;;;;;12.90;7.60;;;;;;;;;;4991044;28;20027;-78
2020/12/27 06:07:04;;;;;;;11.07;6.63;;;;;;;;;;4990787;28;20077;-78
2020/12/27 06:09:30;;;;;;;15.40;7.53;;;;;;;;;;4992621;28;20077;-79
2020/12/27 06:12:02;;;;;;;12.85;7.00;;;;;;;;;;4992902;28;20057;-78
2020/12/27 06:14:31;;;;;;;12.80;7.07;;;;;;;;;;4991292;28;20548;-78
2020/12/27 06:17:04;;;;;;;11.35;6.90;;;;;;;;;;4993660;28;20062;-79
2020/12/27 06:19:40;;;;;;;12.13;6.97;;;;;;;;;;4991186;28;20049;-79
2020/12/27 06:22:08;;;;;;;11.40;6.57;;;;;;;;;;4992779;28;20421;-79
2020/12/27 06:24:34;;;;;;;11.80;6.63;;;;;;;;;;4990969;28;20843;-79
2020/12/27 06:27:01;;;;;;;11.80;7.03;;;;;;;;;;4993359;28;20050;-79
2020/12/27 06:29:46;;;;;;;9.70;6.72;;;;;;;;;;4993261;28;20129;-78
2020/12/27 06:32:15;;;;;;;12.32;6.20;;;;;;;;;;4994038;28;20026;-81
2020/12/27 06:34:41;;;;;;;10.52;6.85;;;;;;;;;;4992542;28;20026;-79
2020/12/27 06:37:08;;;;;;;10.48;6.93;;;;;;;;;;4991847;28;20433;-79
2020/12/27 06:39:34;;;;;;;13.05;6.90;;;;;;;;;;4993957;28;20044;-79
2020/12/27 06:42:10;;;;;;;12.63;6.90;;;;;;;;;;4993600;28;20027;-78
2020/12/27 06:44:43;;;;;;;10.70;6.88;;;;;;;;;;4992622;28;20121;-82
2020/12/27 06:47:10;;;;;;;14.30;6.95;;;;;;;;;;4993238;28;20069;-79
2020/12/27 06:49:36;;;;;;;12.07;6.88;;;;;;;;;;4994034;28;20412;-79
2020/12/27 06:52:22;;;;;;;12.18;7.20;;;;;;;;;;4993280;28;20466;-79
2020/12/27 06:54:52;;;;;;;12.83;7.70;;;;;;;;;;4990896;28;20109;-80
2020/12/27 06:57:37;;;;;;;18.15;10.65;;;;;;;;;;4993486;28;20035;-79
2020/12/27 07:00:22;;;;;;;12.85;7.93;;;;;;;;;;4993279;28;20481;-79
2020/12/27 07:02:49;;;;;;;13.70;8.07;;;;;;;;;;4994246;28;20029;-79
2020/12/27 07:05:31;;;;;;;13.40;8.10;;;;;;;;;;4992046;28;20023;-79
2020/12/27 07:07:57;;;;;;;12.95;7.55;;;;;;;;;;4994008;28;20031;-79
2020/12/27 07:10:26;;;;;;;10.85;6.70;;;;;;;;;;4992945;28;20062;-78
2020/12/27 07:13:01;;;;;;;11.18;7.03;;;;;;;;;;4992049;28;20408;-78
2020/12/27 07:15:28;;;;;;;14.05;7.28;;;;;;;;;;4992437;28;20037;-78
2020/12/27 07:17:54;;;;;;;12.50;7.28;;;;;;;;;;4993095;28;20030;-78
2020/12/27 07:20:22;;;;;;;15.93;7.03;;;;;;;;;;4990875;28;20117;-79
2020/12/27 07:22:54;;;;;;;17.35;9.75;;;;;;;;;;4991001;28;20034;-79
2020/12/27 07:25:21;;;;;;;14.05;7.07;;;;;;;;;;4992408;28;20551;-79
2020/12/27 07:27:48;;;;;;;13.05;7.60;;;;;;;;;;4993710;28;20034;-79
2020/12/27 07:30:15;;;;;;;12.15;7.22;;;;;;;;;;4993094;28;20030;-78
2020/12/27 07:32:41;;;;;;;;;;;;;;;;;;4993200;28;20105;-79
2020/12/27 07:35:11;;;;;;;12.50;6.63;;;;;;;;;;4992483;28;19943;-79
2020/12/27 07:37:37;;;;;;;17.33;7.30;;;;;;;;;;4993482;28;20023;-79
2020/12/27 07:40:04;;;;;;;11.00;6.95;;;;;;;;;;5006701;28;20022;-78
2020/12/27 07:42:32;;;;;;;12.23;6.93;;;;;;;;;;5012994;28;20100;-79
2020/12/27 07:44:59;;;;;;;12.82;7.13;;;;;;;;;;5013043;28;20105;-79
2020/12/27 07:47:25;;;;;;;9.57;6.30;;;;;;;;;;5011737;28;20029;-79
2020/12/27 07:50:11;;;;;;;10.98;6.70;;;;;;;;;;5010178;28;20045;-79
2020/12/27 07:52:43;;;;;;;16.42;6.93;;;;;;;;;;5012872;28;20100;-80
2020/12/27 07:55:09;;;;;;;12.45;7.45;;;;;;;;;;5012083;28;20049;-80
2020/12/27 07:57:36;;;;;;;13.38;8.50;;;;;;;;;;5014113;28;20022;-79
2020/12/27 08:00:08;;;;;;;11.55;7.22;;;;;;;;;;5013656;28;20021;-79
2020/12/27 08:02:34;;;;;;;11.50;7.18;;;;;;;;;;5011527;28;20092;-79
2020/12/27 08:05:01;;;;;;;12.32;7.13;;;;;;;;;;5010430;28;20362;-80
2020/12/27 08:07:27;;;;;;;10.63;6.07;;;;;;;;;;5011916;28;20030;-79
2020/12/27 08:09:53;;;;;;;11.02;6.28;;;;;;;;;;5012571;28;20018;-79
2020/12/27 08:12:19;;;;;;;9.82;6.47;;;;;;;;;;5011168;28;20048;-80
2020/12/27 08:14:45;;;;;;;12.93;6.82;;;;;;;;;;5008955;28;20057;-80
2020/12/27 08:17:15;;;;;;;10.90;6.38;;;;;;;;;;5011026;28;20069;-80
2020/12/27 08:19:41;;;;;;;11.25;6.80;;;;;;;;;;5009758;28;20077;-79
2020/12/27 08:22:07;;;;;;;11.25;6.22;;;;;;;;;;5011808;28;20026;-80
2020/12/27 08:24:33;;;;;;;14.82;7.55;;;;;;;;;;5010612;28;20581;-80
2020/12/27 08:26:59;;;;;;;11.20;6.32;;;;;;;;;;5009743;28;20026;-79
2020/12/27 08:29:26;;;;;;;10.05;5.93;;;;;;;;;;5010263;28;20532;-78
2020/12/27 08:32:03;;;;;;;12.27;7.07;;;;;;;;;;5010390;28;20029;-78
2020/12/27 08:34:30;;;;;;;10.75;6.80;;;;;;;;;;5009087;28;20265;-80
2020/12/27 08:36:56;;;;;;;14.00;7.03;;;;;;;;;;4987889;28;20037;-78
2020/12/27 08:39:43;;;;;;;58.70;30.07;;;;;;;;;;4991588;28;20030;-80
2020/12/27 08:42:09;;;;;;;52.08;25.55;;;;;;;;;;4983122;28;20031;-79
2020/12/27 08:44:59;;;;;;;93.25;42.40;;;;;;;;;;4984949;28;20035;-79
2020/12/27 08:47:44;;;;;;;14.68;8.93;;;;;;;;;;4976484;28;20122;-80
2020/12/27 08:50:14;;;;;;;9.65;6.03;;;;;;;;;;4974214;28;20018;-79
2020/12/27 08:52:40;;;;;;;10.25;6.35;;;;;;;;;;4983842;28;20077;-79
2020/12/27 08:55:09;;;;;;;10.93;6.05;;;;;;;;;;4987495;28;20525;-79
2020/12/27 08:57:36;;;;;;;10.82;6.32;;;;;;;;;;4972378;28;20027;-78
2020/12/27 09:00:02;;;;;;;9.70;5.97;;;;;;;;;;4970497;28;20033;-79
2020/12/27 09:02:28;;;;;;;11.15;6.30;;;;;;;;;;4971853;28;20035;-80
2020/12/27 09:05:01;;;;;;;11.75;6.28;;;;;;;;;;4970124;28;20027;-80
2020/12/27 09:07:46;;;;;;;10.55;6.10;;;;;;;;;;4970835;28;20031;-79
2020/12/27 09:10:18;;;;;;;10.63;6.50;;;;;;;;;;4973305;28;20039;-80
2020/12/27 09:12:59;;;;;;;12.25;6.88;;;;;;;;;;5008792;28;20036;-79
2020/12/27 09:15:29;;;;;;;9.93;6.10;;;;;;;;;;4997537;28;20064;-78
2020/12/27 09:18:15;;;;;;;10.30;6.55;;;;;;;;;;5001233;28;20018;-78
2020/12/27 09:20:42;;;;;;;8.38;5.53;;;;;;;;;;4997972;28;20636;-79
2020/12/27 09:23:11;;;;;;;8.55;5.30;;;;;;;;;;4990423;28;20097;-78
2020/12/27 09:25:38;;;;;;;9.32;6.07;;;;;;;;;;4996369;28;20037;-79
2020/12/27 09:28:12;;;;;;;10.40;6.13;;;;;;;;;;5012629;28;20052;-79
2020/12/27 09:30:39;;;;;;;13.35;6.25;;;;;;;;;;5011326;28;20058;-79
2020/12/27 09:33:05;;;;;;;;;;;;;;;;;;5009950;28;20029;-79
2020/12/27 09:35:31;;;;;;;8.90;5.60;;;;;;;;;;4991414;28;19909;-79
2020/12/27 09:37:58;;;;;;;9.73;5.68;;;;;;;;;;4993017;28;20046;-80
2020/12/27 09:40:25;;;;;;;10.00;5.70;;;;;;;;;;4991821;28;20497;-78
2020/12/27 09:43:13;;;;;;;10.30;6.00;;;;;;;;;;4991485;28;20054;-79
2020/12/27 09:45:40;;;;;;;7.88;5.13;;;;;;;;;;4991144;28;20109;-78
2020/12/27 09:48:09;;;;;;;10.80;6.15;;;;;;;;;;4991190;28;20034;-79
2020/12/27 09:50:36;;;;;;;9.52;5.32;;;;;;;;;;4990124;28;20441;-80
2020/12/27 09:53:06;;;;;;;9.43;5.47;;;;;;;;;;4990261;28;20031;-81
2020/12/27 09:55:35;;;;;;;10.48;5.28;;;;;;;;;;4993830;28;20026;-80
2020/12/27 09:58:01;;;;;;;9.52;5.40;;;;;;;;;;4994227;28;20061;-80
2020/12/27 10:00:27;;;;;;;8.77;5.60;;;;;;;;;;4996277;28;20588;-80
2020/12/27 10:02:53;;;;;;;10.20;5.47;;;;;;;;;;4995628;28;20053;-79
2020/12/27 10:05:19;;;;;;;8.00;4.78;;;;;;;;;;4998782;28;20031;-78
2020/12/27 10:07:45;;;;;;;9.68;5.32;;;;;;;;;;5015824;28;20037;-79
2020/12/27 10:10:15;;;;;;;7.85;4.70;;;;;;;;;;5018755;28;20022;-79
2020/12/27 10:12:41;;;;;;;10.02;5.10;;;;;;;;;;5016913;28;20034;-78
2020/12/27 10:15:09;;;;;;;7.10;4.47;;;;;;;;;;5015243;28;20026;-79
2020/12/27 10:17:35;;;;;;;8.57;4.90;;;;;;;;;;5015503;28;20053;-79
2020/12/27 10:20:01;;;;;;;7.95;4.65;;;;;;;;;;5013248;28;20026;-77
2020/12/27 10:22:27;;;;;;;6.53;3.88;;;;;;;;;;5014718;28;20030;-78
2020/12/27 10:24:53;;;;;;;14.38;4.63;;;;;;;;;;5014136;28;20032;-77
2020/12/27 10:27:19;;;;;;;7.35;4.75;;;;;;;;;;5012681;28;20053;-77
2020/12/27 10:29:45;;;;;;;10.90;4.82;;;;;;;;;;5013113;28;20022;-79
2020/12/27 10:32:12;;;;;;;10.13;4.50;;;;;;;;;;5010955;28;20056;-80
2020/12/27 10:34:38;;;;;;;8.35;4.60;;;;;;;;;;5010816;28;20179;-80
2020/12/27 10:37:05;;;;;;;9.23;4.72;;;;;;;;;;5002829;28;20029;-80
2020/12/27 10:39:31;;;;;;;8.53;5.00;;;;;;;;;;5008792;28;20053;-79
2020/12/27 10:41:57;;;;;;;9.00;5.05;;;;;;;;;;5008519;28;20110;-78
2020/12/27 10:44:24;;;;;;;11.23;5.63;;;;;;;;;;5008475;28;20053;-78
2020/12/27 10:46:50;;;;;;;9.43;5.78;;;;;;;;;;5010083;28;20025;-78
2020/12/27 10:49:17;;;;;;;12.07;6.05;;;;;;;;;;5008438;28;20034;-79
2020/12/27 10:51:44;;;;;;;11.68;6.20;;;;;;;;;;5008563;28;20030;-79
2020/12/27 10:54:11;;;;;;;9.73;5.70;;;;;;;;;;5007417;28;20117;-79
2020/12/27 10:56:37;;;;;;;11.10;6.72;;;;;;;;;;5008523;28;20131;-79
2020/12/27 10:59:03;;;;;;;7.95;5.13;;;;;;;;;;5008051;28;20030;-78
2020/12/27 11:01:29;;;;;;;9.70;5.38;;;;;;;;;;5009500;28;20018;-79
2020/12/27 11:03:55;;;;;;;7.78;4.93;;;;;;;;;;5009590;28;20446;-78
2020/12/27 11:06:31;;;;;;;7.68;4.55;;;;;;;;;;5009743;28;20095;-79
2020/12/27 11:08:58;;;;;;;8.65;5.25;;;;;;;;;;5009378;28;20030;-79
2020/12/27 11:11:24;;;;;;;9.25;5.80;;;;;;;;;;5001891;28;20113;-78
2020/12/27 11:13:50;;;;;;;11.35;6.05;;;;;;;;;;5003132;28;20100;-80
2020/12/27 11:16:16;;;;;;;9.80;5.60;;;;;;;;;;5007956;28;20389;-79
2020/12/27 11:18:42;;;;;;;8.93;5.20;;;;;;;;;;5002267;28;20018;-80
2020/12/27 11:21:08;;;;;;;11.75;5.18;;;;;;;;;;4994054;28;20026;-79
2020/12/27 11:23:44;;;;;;;9.07;4.80;;;;;;;;;;5008252;28;20111;-78
2020/12/27 11:26:10;;;;;;;9.55;4.80;;;;;;;;;;4987228;28;20033;-77
2020/12/27 11:28:36;;;;;;;8.88;4.63;;;;;;;;;;5002477;28;20449;-76
2020/12/27 11:31:02;;;;;;;10.32;4.68;;;;;;;;;;4989847;28;20031;-77
2020/12/27 11:33:28;;;;;;;7.75;4.85;;;;;;;;;;4996443;28;20025;-79
2020/12/27 11:35:54;;;;;;;7.63;4.45;;;;;;;;;;5004973;28;20081;-77
2020/12/27 11:38:20;;;;;;;10.02;4.55;;;;;;;;;;5007195;28;20445;-76
2020/12/27 11:40:47;;;;;;;8.52;4.70;;;;;;;;;;4989155;28;20026;-77
2020/12/27 11:43:13;;;;;;;8.60;5.65;;;;;;;;;;4988821;28;20101;-78
2020/12/27 11:45:39;;;;;;;10.18;4.95;;;;;;;;;;4988310;28;20097;-77
2020/12/27 11:48:05;;;;;;;8.88;5.18;;;;;;;;;;4988375;28;20026;-77
2020/12/27 11:50:31;;;;;;;7.90;5.50;;;;;;;;;;4988928;28;20026;-76
2020/12/27 11:52:57;;;;;;;11.57;6.43;;;;;;;;;;4987543;28;20085;-77
2020/12/27 11:55:23;;;;;;;10.40;5.05;;;;;;;;;;4988365;28;20061;-77
2020/12/27 11:57:49;;;;;;;9.30;5.90;;;;;;;;;;4988764;28;20065;-78
2020/12/27 12:00:15;;;;;;;11.98;5.55;;;;;;;;;;4988594;28;20255;-77
2020/12/27 12:02:41;;;;;;;27.85;14.15;;;;;;;;;;4987436;28;20084;-78
2020/12/27 12:05:07;;;;;;;13.82;7.13;;;;;;;;;;4986695;28;20105;-77
2020/12/27 12:07:33;;;;;;;8.77;5.50;;;;;;;;;;4987617;28;20026;-77
2020/12/27 12:09:59;;;;;;;10.32;5.20;;;;;;;;;;4987116;28;20041;-77
2020/12/27 12:12:25;;;;;;;8.15;5.40;;;;;;;;;;4987343;28;20072;-77
2020/12/27 12:14:53;;;;;;;8.55;4.85;;;;;;;;;;4987698;28;20022;-77
2020/12/27 12:17:19;;;;;;;7.32;4.80;;;;;;;;;;4988210;28;20018;-76
2020/12/27 12:19:45;;;;;;;6.50;4.05;;;;;;;;;;4987200;28;20074;-76
2020/12/27 12:22:11;;;;;;;8.05;4.53;;;;;;;;;;4986252;28;20427;-77
2020/12/27 12:24:37;;;;;;;6.15;3.92;;;;;;;;;;4986550;28;20057;-76
2020/12/27 12:27:03;;;;;;;8.15;3.78;;;;;;;;;;4988734;28;20477;-76
2020/12/27 12:29:29;;;;;;;9.43;4.85;;;;;;;;;;4988436;28;20113;-77
2020/12/27 12:31:55;;;;;;;7.00;4.40;;;;;;;;;;4988454;28;20030;-77
2020/12/27 12:34:21;;;;;;;9.23;4.60;;;;;;;;;;4986542;28;20401;-77
2020/12/27 12:36:49;;;;;;;9.50;5.00;;;;;;;;;;4987176;28;20034;-76
2020/12/27 12:39:15;;;;;;;12.85;7.38;;;;;;;;;;4988136;28;20089;-76
2020/12/27 12:41:41;;;;;;;11.50;6.47;;;;;;;;;;4988388;28;20018;-76
2020/12/27 12:44:07;;;;;;;10.45;5.93;;;;;;;;;;4986203;28;20026;-77
2020/12/27 12:46:33;;;;;;;11.65;6.15;;;;;;;;;;4988285;28;20028;-77
2020/12/27 12:48:59;;;;;;;13.05;6.82;;;;;;;;;;4988301;28;20057;-76
2020/12/27 12:51:25;;;;;;;14.10;8.50;;;;;;;;;;4986916;28;20062;-77
2020/12/27 12:53:51;;;;;;;13.80;8.38;;;;;;;;;;4988496;28;20027;-77
2020/12/27 12:56:17;;;;;;;10.63;6.13;;;;;;;;;;4987517;28;20031;-76
2020/12/27 12:58:43;;;;;;;11.68;6.05;;;;;;;;;;4988305;28;20041;-76
2020/12/27 13:01:10;;;;;;;9.75;5.72;;;;;;;;;;4987089;28;20410;-77
2020/12/27 13:03:36;;;;;;;10.23;6.03;;;;;;;;;;4988301;28;20054;-77
2020/12/27 13:06:02;;;;;;;8.80;5.25;;;;;;;;;;4986344;28;20101;-78
2020/12/27 13:08:28;;;;;;;8.05;5.13;;;;;;;;;;4988256;28;20038;-77
2020/12/27 13:10:54;;;;;;;9.60;5.28;;;;;;;;;;4986012;28;20018;-78
2020/12/27 13:13:20;;;;;;;11.68;5.35;;;;;;;;;;4986811;28;20121;-77
2020/12/27 13:15:47;;;;;;;12.98;5.32;;;;;;;;;;4987175;28;20069;-77
2020/12/27 13:18:13;;;;;;;9.02;5.45;;;;;;;;;;4986662;28;20030;-78
2020/12/27 13:20:39;;;;;;;8.65;5.18;;;;;;;;;;4987910;28;20587;-77
2020/12/27 13:23:05;;;;;;;9.43;5.18;;;;;;;;;;4988194;28;20397;-77
2020/12/27 13:25:31;;;;;;;9.82;5.82;;;;;;;;;;4986003;28;20026;-78
2020/12/27 13:27:57;;;;;;;10.30;5.68;;;;;;;;;;4986014;28;20037;-77
2020/12/27 13:30:23;;;;;;;10.85;6.13;;;;;;;;;;4988327;28;20041;-78
2020/12/27 13:32:49;;;;;;;12.05;6.20;;;;;;;;;;4990021;28;20507;-78
2020/12/27 13:35:15;;;;;;;14.77;7.45;;;;;;;;;;4990855;28;20065;-77
2020/12/27 13:37:41;;;;;;;10.95;6.18;;;;;;;;;;4989806;28;20053;-77
2020/12/27 13:40:07;;;;;;;11.57;5.88;;;;;;;;;;4991875;28;20014;-77
2020/12/27 13:42:34;;;;;;;11.73;6.28;;;;;;;;;;4989956;28;20027;-78
2020/12/27 13:45:00;;;;;;;10.50;5.80;;;;;;;;;;4990674;28;20410;-78
2020/12/27 13:47:26;;;;;;;10.45;6.03;;;;;;;;;;4989913;28;20800;-77
2020/12/27 13:49:52;;;;;;;11.27;6.38;;;;;;;;;;4990271;28;20085;-76
2020/12/27 13:52:18;;;;;;;11.32;6.57;;;;;;;;;;4991175;28;20061;-77
2020/12/27 13:54:45;;;;;;;9.88;6.15;;;;;;;;;;4991253;28;20054;-76
2020/12/27 13:57:11;;;;;;;11.07;5.95;;;;;;;;;;4990739;28;20031;-76
2020/12/27 13:59:37;;;;;;;11.30;6.93;;;;;;;;;;4991197;28;20393;-77
2020/12/27 14:02:03;;;;;;;10.13;5.97;;;;;;;;;;4991487;28;20026;-76
2020/12/27 14:04:29;;;;;;;9.00;5.80;;;;;;;;;;4989717;28;20023;-77
2020/12/27 14:06:55;;;;;;;9.52;5.93;;;;;;;;;;4991503;28;20054;-77
2020/12/27 14:09:22;;;;;;;8.35;5.20;;;;;;;;;;4990811;28;20056;-77
2020/12/27 14:11:48;;;;;;;;;;;;;;;;;;4991530;28;20041;-76
2020/12/27 14:14:14;;;;;;;9.90;5.30;;;;;;;;;;4990663;28;19906;-78
2020/12/27 14:16:42;;;;;;;12.93;6.32;;;;;;;;;;4991078;28;20481;-77
2020/12/27 14:19:08;;;;;;;10.23;5.15;;;;;;;;;;4989206;28;20030;-77
2020/12/27 14:21:34;;;;;;;11.52;6.88;;;;;;;;;;4990719;28;20495;-77
2020/12/27 14:24:01;;;;;;;9.23;5.43;;;;;;;;;;4990244;28;20053;-77
2020/12/27 14:26:34;;;;;;;9.20;5.20;;;;;;;;;;4988520;28;20030;-77
2020/12/27 14:29:00;;;;;;;10.52;5.05;;;;;;;;;;4990830;28;20441;-79
2020/12/27 14:31:26;;;;;;;9.80;5.00;;;;;;;;;;4990246;28;20034;-80
2020/12/27 14:33:52;;;;;;;11.88;5.78;;;;;;;;;;4988575;28;20093;-77
2020/12/27 14:36:18;;;;;;;6.72;3.83;;;;;;;;;;4989925;28;20026;-78
2020/12/27 14:38:44;;;;;;;6.25;3.90;;;;;;;;;;4990260;28;20029;-77